Time;durP1;ratioP1;P1;durP2;ratioP2;P2;SDS_P1;SDS_P2;PMS_P1;PMS_P2;Temp;Humidity;BMP_temperature;BMP_pressure;BME280_temperature;BME280_humidity;BME280_pressure;Samples;Min_cycle;Max_cycle;Signal;HPM_P1;HPM_P2
2021/03/09 00:01:40;;;;;;;19.92;7.55;;;0.80;99.90;;;;;;5025772;28;20033;-79
2021/03/09 00:04:05;;;;;;;19.83;9.15;;;0.80;99.90;;;;;;5024148;28;20045;-80
2021/03/09 00:06:31;;;;;;;22.55;8.70;;;0.90;99.90;;;;;;5013180;28;20053;-79
2021/03/09 00:08:56;;;;;;;16.45;8.00;;;0.80;99.90;;;;;;5010576;28;20048;-78
2021/03/09 00:11:22;;;;;;;18.33;8.30;;;0.80;99.90;;;;;;5013504;28;20044;-79
2021/03/09 00:13:47;;;;;;;21.27;8.32;;;0.70;99.90;;;;;;5008087;28;22047;-78
2021/03/09 00:16:13;;;;;;;20.10;8.55;;;0.70;99.90;;;;;;5029932;28;20061;-80
2021/03/09 00:18:39;;;;;;;21.10;8.95;;;0.70;99.90;;;;;;5009244;28;20068;-80
2021/03/09 00:21:04;;;;;;;19.67;8.70;;;0.70;99.90;;;;;;5005817;28;20117;-80
2021/03/09 00:23:30;;;;;;;25.90;8.27;;;0.60;99.90;;;;;;5010489;28;20045;-80
2021/03/09 00:25:56;;;;;;;23.08;7.78;;;0.60;99.90;;;;;;5004610;28;20582;-77
2021/03/09 00:28:22;;;;;;;16.70;7.82;;;0.70;99.90;;;;;;5001622;28;20046;-79
2021/03/09 00:30:48;;;;;;;18.17;8.07;;;0.60;99.90;;;;;;5005225;28;20042;-78
2021/03/09 00:33:14;;;;;;;22.67;8.93;;;0.60;99.90;;;;;;5002454;28;20054;-79
2021/03/09 00:35:39;;;;;;;25.08;8.50;;;0.50;99.90;;;;;;5005373;28;20049;-79
2021/03/09 00:38:05;;;;;;;23.63;8.70;;;0.50;99.90;;;;;;5004231;28;20129;-78
2021/03/09 00:40:30;;;;;;;21.50;9.27;;;0.60;99.90;;;;;;5006020;28;20037;-79
2021/03/09 00:42:56;;;;;;;22.38;9.45;;;0.50;99.90;;;;;;5007163;28;20049;-78
2021/03/09 00:45:22;;;;;;;24.80;9.75;;;0.50;99.90;;;;;;5008569;28;20049;-78
2021/03/09 00:47:48;;;;;;;22.75;8.60;;;0.50;99.90;;;;;;5003682;28;20034;-79
2021/03/09 00:50:14;;;;;;;20.05;9.02;;;0.50;99.90;;;;;;5018031;28;20034;-80
2021/03/09 00:52:39;;;;;;;24.23;9.45;;;0.50;99.90;;;;;;5017865;28;20150;-80
2021/03/09 00:55:06;;;;;;;17.17;8.55;;;0.40;99.90;;;;;;5004450;28;20136;-79
2021/03/09 00:57:31;;;;;;;19.10;9.18;;;0.40;99.90;;;;;;5010449;28;20041;-78
2021/03/09 00:59:57;;;;;;;22.38;8.77;;;0.40;99.90;;;;;;5007340;28;20034;-80
2021/03/09 01:02:22;;;;;;;20.48;9.27;;;0.40;99.90;;;;;;5000595;28;20141;-80
2021/03/09 01:04:48;;;;;;;20.60;9.15;;;0.40;99.90;;;;;;5000177;28;20069;-80
2021/03/09 01:07:13;;;;;;;19.70;9.60;;;0.40;99.90;;;;;;5001538;28;20057;-81
2021/03/09 01:09:39;;;;;;;23.92;9.80;;;0.30;99.90;;;;;;5004410;28;20042;-80
2021/03/09 01:12:05;;;;;;;22.23;8.73;;;0.40;99.90;;;;;;5009062;28;20495;-79
2021/03/09 01:14:31;;;;;;;17.42;9.05;;;0.30;99.90;;;;;;5005376;28;20038;-80
2021/03/09 01:16:56;;;;;;;20.40;8.93;;;0.30;99.90;;;;;;5010104;28;20050;-79
2021/03/09 01:19:22;;;;;;;20.38;9.02;;;0.30;99.90;;;;;;5004257;28;20034;-77
2021/03/09 01:21:48;;;;;;;22.23;9.68;;;0.30;99.90;;;;;;5007186;28;20046;-79
2021/03/09 01:24:13;;;;;;;18.38;8.70;;;0.20;99.90;;;;;;5003618;28;20046;-79
2021/03/09 01:26:39;;;;;;;21.58;10.82;;;0.20;99.90;;;;;;5006950;28;20049;-79
2021/03/09 01:29:04;;;;;;;21.00;8.38;;;0.20;99.90;;;;;;5003041;28;20030;-78
2021/03/09 01:31:30;;;;;;;20.63;9.68;;;0.20;99.90;;;;;;5005641;28;20053;-79
2021/03/09 01:33:55;;;;;;;24.42;9.77;;;0.20;99.90;;;;;;5014115;28;20124;-79
2021/03/09 01:36:21;;;;;;;21.30;9.43;;;0.20;99.90;;;;;;5006701;28;20398;-79
2021/03/09 01:38:47;;;;;;;23.98;10.02;;;0.20;99.90;;;;;;5005538;28;20048;-79
2021/03/09 01:41:13;;;;;;;20.83;9.77;;;0.20;99.90;;;;;;5007071;28;20046;-79
2021/03/09 01:43:40;;;;;;;22.30;9.05;;;0.30;99.90;;;;;;5004658;28;20042;-78
2021/03/09 01:46:06;;;;;;;27.92;10.52;;;0.10;99.90;;;;;;4997521;28;20046;-79
2021/03/09 01:48:36;;;;;;;21.73;10.10;;;0.20;99.90;;;;;;5003077;28;20048;-79
2021/03/09 01:51:02;;;;;;;19.13;9.10;;;0.10;99.90;;;;;;5021860;28;20048;-79
2021/03/09 01:53:29;;;;;;;26.77;10.43;;;0.10;99.90;;;;;;4996947;28;20512;-79
2021/03/09 01:55:55;;;;;;;23.27;9.50;;;0.10;99.90;;;;;;5004533;28;20041;-80
2021/03/09 01:58:23;;;;;;;21.35;10.15;;;0.20;99.90;;;;;;5019909;28;20069;-80
2021/03/09 02:00:48;;;;;;;24.42;10.05;;;0.10;99.90;;;;;;5003378;28;20438;-79
2021/03/09 02:03:14;;;;;;;24.73;9.40;;;0.10;99.90;;;;;;5006314;28;20038;-79
2021/03/09 02:05:40;;;;;;;20.98;9.75;;;0.10;99.90;;;;;;4996018;28;20137;-78
2021/03/09 02:08:06;;;;;;;22.35;9.85;;;0.10;99.90;;;;;;5005058;28;20108;-78
2021/03/09 02:10:32;;;;;;;29.25;10.98;;;0.20;99.90;;;;;;5005294;28;20131;-79
2021/03/09 02:13:06;;;;;;;23.48;9.77;;;0.00;99.90;;;;;;5005286;28;20038;-80
2021/03/09 02:15:59;;;;;;;25.85;9.25;;;0.00;99.90;;;;;;5003528;28;20026;-79
2021/03/09 02:18:36;;;;;;;24.58;10.43;;;0.00;99.90;;;;;;5005180;28;20030;-79
2021/03/09 02:21:22;;;;;;;16.88;9.82;;;0.00;99.90;;;;;;5003591;28;20537;-78
2021/03/09 02:23:57;;;;;;;23.23;10.38;;;0.00;99.90;;;;;;5006881;28;20410;-79
2021/03/09 02:26:36;;;;;;;22.38;9.27;;;0.10;99.90;;;;;;5018382;28;20046;-79
2021/03/09 02:29:35;;;;;;;22.98;10.38;;;0.00;99.90;;;;;;5003511;28;20517;-80
2021/03/09 02:32:04;;;;;;;25.05;10.68;;;0.00;99.90;;;;;;5018588;28;20034;-79
2021/03/09 02:34:31;;;;;;;22.75;10.32;;;0.00;99.90;;;;;;5005126;28;20839;-79
2021/03/09 02:37:00;;;;;;;20.77;9.27;;;0.00;99.90;;;;;;5004901;28;20449;-79
2021/03/09 02:39:27;;;;;;;21.05;9.43;;;-0.10;99.90;;;;;;5003837;28;20037;-78
2021/03/09 02:41:57;;;;;;;24.30;10.80;;;-0.10;99.90;;;;;;5002637;28;20088;-78
2021/03/09 02:44:25;;;;;;;21.55;10.00;;;-0.10;99.90;;;;;;5004752;28;20109;-78
2021/03/09 02:46:50;;;;;;;21.77;10.00;;;-0.10;99.90;;;;;;5003572;28;20041;-78
2021/03/09 02:49:18;;;;;;;20.63;10.13;;;-0.10;99.90;;;;;;5001643;28;20548;-78
2021/03/09 02:51:45;;;;;;;26.27;11.07;;;-0.10;99.90;;;;;;5016986;28;20099;-79
2021/03/09 02:54:14;;;;;;;27.90;11.27;;;-0.10;99.90;;;;;;5004499;28;20092;-77
2021/03/09 02:56:43;;;;;;;30.15;10.68;;;-0.10;99.90;;;;;;5009769;28;20042;-77
2021/03/09 02:59:12;;;;;;;19.80;10.02;;;-0.10;99.90;;;;;;5006341;28;20045;-77
2021/03/09 03:01:40;;;;;;;21.17;9.52;;;-0.10;99.90;;;;;;5008861;28;20053;-77
2021/03/09 03:04:09;;;;;;;22.88;10.35;;;-0.10;99.90;;;;;;5009557;28;20046;-77
2021/03/09 03:06:37;;;;;;;22.92;10.43;;;-0.10;99.90;;;;;;5013409;28;20034;-77
2021/03/09 03:09:04;;;;;;;21.27;9.88;;;-0.10;99.90;;;;;;5001091;28;20041;-77
2021/03/09 03:11:31;;;;;;;20.90;9.70;;;-0.10;99.90;;;;;;5024698;28;20034;-77
2021/03/09 03:14:00;;;;;;;22.83;10.15;;;-0.20;99.90;;;;;;5010564;28;20122;-78
2021/03/09 03:16:27;;;;;;;22.33;9.63;;;-0.10;99.90;;;;;;5031396;28;20046;-81
2021/03/09 03:18:54;;;;;;;34.75;11.07;;;-0.20;99.90;;;;;;5017227;28;20044;-77
2021/03/09 03:21:21;;;;;;;26.05;10.38;;;-0.20;99.90;;;;;;5013277;28;20038;-77
2021/03/09 03:23:47;;;;;;;22.67;9.98;;;-0.20;99.90;;;;;;5016329;28;20053;-78
2021/03/09 03:26:15;;;;;;;26.63;10.98;;;-0.20;99.90;;;;;;5010899;28;20045;-78
2021/03/09 03:28:45;;;;;;;22.88;10.48;;;-0.20;99.90;;;;;;5012081;28;20121;-77
2021/03/09 03:31:11;;;;;;;26.95;11.23;;;-0.20;99.90;;;;;;5003078;28;20040;-78
2021/03/09 03:33:39;;;;;;;24.92;11.07;;;-0.20;99.90;;;;;;5005662;28;20033;-78
2021/03/09 03:36:06;;;;;;;21.58;10.45;;;-0.30;99.90;;;;;;5013387;28;20069;-78
2021/03/09 03:38:37;;;;;;;20.08;9.98;;;-0.30;99.90;;;;;;5020383;28;20046;-77
2021/03/09 03:41:04;;;;;;;28.30;11.50;;;-0.30;99.90;;;;;;5016314;28;20045;-77
2021/03/09 03:43:30;;;;;;;25.90;10.63;;;-0.30;99.90;;;;;;5017339;28;20034;-78
2021/03/09 03:45:56;;;;;;;24.90;10.60;;;-0.30;99.90;;;;;;5021351;28;20037;-78
2021/03/09 03:48:23;;;;;;;24.88;10.77;;;-0.30;99.90;;;;;;5016912;28;20065;-79
2021/03/09 03:50:49;;;;;;;26.50;10.57;;;-0.30;99.90;;;;;;5022463;28;20061;-78
2021/03/09 03:53:26;;;;;;;24.48;10.20;;;-0.30;99.90;;;;;;5005637;28;20046;-78
2021/03/09 03:55:52;;;;;;;26.88;10.15;;;-0.30;99.90;;;;;;5013176;28;20124;-78
2021/03/09 03:58:23;;;;;;;25.25;10.02;;;-0.30;99.90;;;;;;5018515;28;20342;-79
2021/03/09 04:00:51;;;;;;;26.70;10.90;;;-0.30;99.90;;;;;;5011736;28;20057;-80
2021/03/09 04:03:17;;;;;;;27.90;11.73;;;-0.30;99.90;;;;;;5005871;28;20030;-80
2021/03/09 04:05:47;;;;;;;27.88;11.48;;;-0.40;99.90;;;;;;5006127;28;20628;-79
2021/03/09 04:08:15;;;;;;;29.52;11.48;;;-0.30;99.90;;;;;;5004981;28;20038;-79
2021/03/09 04:10:41;;;;;;;29.40;11.80;;;-0.40;99.90;;;;;;5003866;28;20038;-79
2021/03/09 04:13:08;;;;;;;24.05;10.85;;;-0.40;99.90;;;;;;5005637;28;20121;-79
2021/03/09 04:15:35;;;;;;;22.80;11.25;;;-0.40;99.90;;;;;;5003187;28;20037;-79
2021/03/09 04:18:03;;;;;;;25.02;11.18;;;-0.40;99.90;;;;;;5004723;28;20038;-79
2021/03/09 04:20:29;;;;;;;23.95;10.18;;;-0.50;99.90;;;;;;5002935;28;20045;-79
2021/03/09 04:22:56;;;;;;;25.65;11.40;;;-0.40;99.90;;;;;;5002074;28;20058;-79
2021/03/09 04:25:23;;;;;;;29.02;11.55;;;-0.40;99.90;;;;;;5002979;28;20045;-78
2021/03/09 04:27:49;;;;;;;29.02;12.63;;;-0.40;99.90;;;;;;5000874;28;20686;-77
2021/03/09 04:30:15;;;;;;;30.30;11.23;;;-0.40;99.90;;;;;;5002693;28;20034;-78
2021/03/09 04:32:41;;;;;;;27.17;10.63;;;-0.40;99.90;;;;;;5002732;28;20116;-79
2021/03/09 04:35:07;;;;;;;25.55;11.00;;;-0.40;99.90;;;;;;5004124;28;20038;-79
2021/03/09 04:37:34;;;;;;;24.08;11.13;;;-0.40;99.90;;;;;;5001090;28;20503;-79
2021/03/09 04:40:00;;;;;;;26.90;11.63;;;-0.40;99.90;;;;;;5003310;28;20503;-79
2021/03/09 04:42:25;;;;;;;25.90;11.43;;;-0.40;99.90;;;;;;5003458;28;20041;-80
2021/03/09 04:44:51;;;;;;;25.58;11.43;;;-0.40;99.90;;;;;;5013218;28;20030;-78
2021/03/09 04:47:17;;;;;;;25.58;12.27;;;-0.40;99.90;;;;;;5009363;28;20040;-78
2021/03/09 04:49:43;;;;;;;29.63;11.80;;;-0.40;99.90;;;;;;5005811;28;20914;-80
2021/03/09 04:52:11;;;;;;;30.02;13.13;;;-0.40;99.90;;;;;;5006432;28;20034;-78
2021/03/09 04:54:37;;;;;;;26.15;12.00;;;-0.40;99.90;;;;;;5005303;28;20038;-79
2021/03/09 04:57:03;;;;;;;32.35;12.05;;;-0.50;99.90;;;;;;5014265;28;20045;-78
2021/03/09 04:59:29;;;;;;;32.65;11.73;;;-0.50;99.90;;;;;;5012274;28;20041;-78
2021/03/09 05:01:54;;;;;;;27.77;12.05;;;-0.50;99.90;;;;;;5025752;28;20098;-78
2021/03/09 05:04:20;;;;;;;33.97;12.57;;;-0.50;99.90;;;;;;4994726;28;20048;-79
2021/03/09 05:06:46;;;;;;;22.80;11.25;;;-0.50;99.90;;;;;;5008215;28;20316;-79
2021/03/09 05:09:12;;;;;;;31.40;11.88;;;-0.50;99.90;;;;;;5007512;28;20675;-78
2021/03/09 05:11:37;;;;;;;25.85;11.57;;;-0.50;99.90;;;;;;5003958;28;20050;-79
2021/03/09 05:14:03;;;;;;;28.48;11.00;;;-0.50;99.90;;;;;;5008842;28;20116;-80
2021/03/09 05:16:28;;;;;;;31.65;11.98;;;-0.50;99.90;;;;;;5006632;28;20042;-80
2021/03/09 05:18:54;;;;;;;25.40;11.50;;;-0.50;99.90;;;;;;5006787;28;20569;-79
2021/03/09 05:21:20;;;;;;;28.63;11.57;;;-0.50;99.90;;;;;;5007298;28;20545;-79
2021/03/09 05:23:46;;;;;;;22.67;10.52;;;-0.50;99.90;;;;;;5006962;28;20418;-79
2021/03/09 05:26:12;;;;;;;29.58;11.80;;;-0.50;99.90;;;;;;5012607;28;20045;-79
2021/03/09 05:28:38;;;;;;;33.15;11.75;;;-0.50;99.90;;;;;;5014098;28;20041;-77
2021/03/09 05:31:04;;;;;;;24.00;10.90;;;-0.50;99.90;;;;;;5012765;28;20052;-77
2021/03/09 05:33:29;;;;;;;30.63;12.20;;;-0.50;99.90;;;;;;5016472;28;20089;-77
2021/03/09 05:35:55;;;;;;;31.38;11.65;;;-0.50;99.90;;;;;;5015084;28;20074;-77
2021/03/09 05:38:21;;;;;;;28.50;11.23;;;-0.50;99.90;;;;;;5020147;28;20046;-78
2021/03/09 05:40:47;;;;;;;22.77;10.55;;;-0.50;99.90;;;;;;5015985;28;20065;-77
2021/03/09 05:43:13;;;;;;;22.80;10.85;;;-0.50;99.90;;;;;;5023935;28;20096;-78
2021/03/09 05:45:39;;;;;;;27.40;11.73;;;-0.50;99.90;;;;;;5017488;28;20091;-78
2021/03/09 05:48:06;;;;;;;27.92;12.18;;;-0.50;99.90;;;;;;5006195;28;20034;-79
2021/03/09 05:50:31;;;;;;;27.50;11.75;;;-0.50;99.90;;;;;;5006923;28;20034;-79
2021/03/09 05:52:57;;;;;;;24.25;11.48;;;-0.50;99.90;;;;;;5001924;28;20030;-79
2021/03/09 05:55:23;;;;;;;26.90;11.38;;;-0.50;99.90;;;;;;5002718;28;20034;-79
2021/03/09 05:57:49;;;;;;;23.42;10.27;;;-0.50;99.90;;;;;;5027762;28;21793;-77
2021/03/09 06:00:15;;;;;;;24.48;10.65;;;-0.40;99.90;;;;;;5008668;28;20038;-76
2021/03/09 06:02:42;;;;;;;31.17;10.18;;;-0.40;99.90;;;;;;5023831;28;20093;-80
2021/03/09 06:05:09;;;;;;;25.95;11.25;;;-0.40;99.90;;;;;;5028007;28;20038;-77
2021/03/09 06:07:35;;;;;;;25.05;10.98;;;-0.40;99.90;;;;;;5007923;28;20038;-76
2021/03/09 06:10:02;;;;;;;29.15;11.35;;;-0.30;99.90;;;;;;5007667;28;20042;-77
2021/03/09 06:12:27;;;;;;;40.22;12.18;;;-0.30;99.90;;;;;;5024168;28;20033;-78
2021/03/09 06:14:56;;;;;;;21.23;10.50;;;-0.30;99.90;;;;;;5006260;28;20038;-77
2021/03/09 06:17:30;;;;;;;34.75;12.13;;;-0.20;99.90;;;;;;5006697;28;20100;-79
2021/03/09 06:19:56;;;;;;;28.70;10.68;;;-0.20;99.90;;;;;;5003959;28;20052;-77
2021/03/09 06:22:41;;;;;;;27.15;11.38;;;-0.10;99.90;;;;;;5002428;28;20490;-78
2021/03/09 06:25:09;;;;;;;27.90;11.52;;;-0.10;99.90;;;;;;5020136;28;20470;-78
2021/03/09 06:27:36;;;;;;;37.05;12.70;;;0.00;99.90;;;;;;5004403;28;20038;-78
2021/03/09 06:30:04;;;;;;;30.75;12.35;;;0.10;99.90;;;;;;5018574;28;20034;-77
2021/03/09 06:32:45;;;;;;;25.35;10.68;;;0.10;99.90;;;;;;5016188;28;20037;-77
2021/03/09 06:35:32;;;;;;;32.08;12.70;;;0.20;99.90;;;;;;5004381;28;20038;-77
2021/03/09 06:38:20;;;;;;;28.92;12.57;;;0.30;99.90;;;;;;5002058;28;20061;-78
2021/03/09 06:41:08;;;;;;;23.17;10.35;;;0.30;99.90;;;;;;4999941;28;20044;-79
2021/03/09 06:43:34;;;;;;;42.25;12.18;;;0.40;99.90;;;;;;5001574;28;20036;-78
2021/03/09 06:46:20;;;;;;;26.65;10.60;;;0.50;99.90;;;;;;4989549;28;20939;-77
2021/03/09 06:49:07;;;;;;;27.73;12.82;;;0.70;99.90;;;;;;5006662;28;20152;-78
2021/03/09 06:51:34;;;;;;;30.40;13.10;;;0.70;99.90;;;;;;5004163;28;20049;-78
2021/03/09 06:54:05;;;;;;;35.65;12.23;;;0.80;99.90;;;;;;5005548;28;20041;-77
2021/03/09 06:56:32;;;;;;;27.50;10.85;;;0.90;99.90;;;;;;5005920;28;20037;-79
2021/03/09 06:59:16;;;;;;;37.78;13.25;;;1.00;99.90;;;;;;5006080;28;20629;-78
2021/03/09 07:01:42;;;;;;;43.03;12.10;;;1.10;99.90;;;;;;5009005;28;20046;-79
2021/03/09 07:04:20;;;;;;;46.25;13.38;;;1.20;99.90;;;;;;5011952;28;20026;-79
2021/03/09 07:06:46;;;;;;;35.30;12.65;;;1.30;99.90;;;;;;5025404;28;20037;-79
2021/03/09 07:09:12;;;;;;;39.42;12.55;;;1.40;99.90;;;;;;5005252;28;20780;-80
2021/03/09 07:11:39;;;;;;;32.40;11.75;;;1.50;99.90;;;;;;5010025;28;20574;-79
2021/03/09 07:14:05;;;;;;;36.30;11.60;;;1.50;99.90;;;;;;5009218;28;20037;-79
2021/03/09 07:16:33;;;;;;;38.83;11.75;;;1.70;99.90;;;;;;5015701;28;20026;-77
2021/03/09 07:19:00;;;;;;;29.38;12.65;;;1.70;99.90;;;;;;5022384;28;20569;-77
2021/03/09 07:21:30;;;;;;;36.45;12.85;;;1.80;99.90;;;;;;5027761;28;20077;-79
2021/03/09 07:23:59;;;;;;;29.60;12.60;;;1.90;99.90;;;;;;5013699;28;20037;-79
2021/03/09 07:26:25;;;;;;;33.78;11.30;;;1.90;99.90;;;;;;5035151;28;20046;-77
2021/03/09 07:28:52;;;;;;;34.70;12.13;;;2.00;99.90;;;;;;5037995;28;20025;-78
2021/03/09 07:31:24;;;;;;;37.45;13.75;;;2.20;99.90;;;;;;5014728;28;20080;-80
2021/03/09 07:33:51;;;;;;;38.70;12.85;;;2.30;99.90;;;;;;5009288;28;20562;-79
2021/03/09 07:36:17;;;;;;;39.55;13.13;;;2.50;99.90;;;;;;5010692;28;20550;-79
2021/03/09 07:38:45;;;;;;;35.75;12.55;;;2.50;99.90;;;;;;5010261;28;20077;-78
2021/03/09 07:41:11;;;;;;;35.67;13.00;;;2.70;99.90;;;;;;5014117;28;20087;-78
2021/03/09 07:43:38;;;;;;;37.63;13.13;;;3.00;99.90;;;;;;5017234;28;20042;-79
2021/03/09 07:46:08;;;;;;;44.78;13.50;;;2.90;99.90;;;;;;5022237;28;20045;-78
2021/03/09 07:48:34;;;;;;;27.15;12.93;;;3.00;99.90;;;;;;5008584;28;20038;-78
2021/03/09 07:51:06;;;;;;;35.03;12.95;;;3.20;99.90;;;;;;5005908;28;20155;-79
2021/03/09 07:53:31;;;;;;;30.98;12.00;;;3.30;99.90;;;;;;5007840;28;20048;-80
2021/03/09 07:56:13;;;;;;;32.45;13.70;;;3.30;99.90;;;;;;5003918;28;20030;-80
2021/03/09 07:58:41;;;;;;;35.05;13.90;;;3.30;99.90;;;;;;5008413;28;20042;-77
2021/03/09 08:01:08;;;;;;;27.88;13.60;;;3.40;99.90;;;;;;5009640;28;20097;-79
2021/03/09 08:03:42;;;;;;;43.20;12.70;;;3.40;99.90;;;;;;5008298;28;20069;-80
2021/03/09 08:06:11;;;;;;;29.85;13.57;;;3.50;99.90;;;;;;5003015;28;20038;-79
2021/03/09 08:08:40;;;;;;;32.95;13.30;;;3.70;99.90;;;;;;5005104;28;20523;-78
2021/03/09 08:11:14;;;;;;;54.08;12.93;;;3.70;99.90;;;;;;5007661;28;20045;-79
2021/03/09 08:13:41;;;;;;;36.25;12.45;;;3.80;99.90;;;;;;5024097;28;20042;-78
2021/03/09 08:16:24;;;;;;;54.15;14.63;;;3.80;99.80;;;;;;5010294;28;20650;-79
2021/03/09 08:19:24;;;;;;;32.28;13.07;;;4.00;99.90;;;;;;5007059;28;20034;-79
2021/03/09 08:21:58;;;;;;;40.08;13.10;;;4.00;99.30;;;;;;5006193;28;20058;-79
2021/03/09 08:24:42;;;;;;;42.43;13.83;;;4.10;97.50;;;;;;5004432;28;20041;-78
2021/03/09 08:27:32;;;;;;;37.95;14.73;;;4.00;96.10;;;;;;5004785;28;20327;-78
2021/03/09 08:30:06;;;;;;;34.65;13.75;;;4.30;96.50;;;;;;5012810;28;20380;-78
2021/03/09 08:32:35;;;;;;;33.20;14.23;;;4.50;95.60;;;;;;5008010;28;20064;-79
2021/03/09 08:35:13;;;;;;;36.13;14.52;;;4.80;93.50;;;;;;5008750;28;20033;-79
2021/03/09 08:37:43;;;;;;;38.83;14.68;;;4.90;92.40;;;;;;5027052;28;20065;-79
2021/03/09 08:40:20;;;;;;;32.45;13.32;;;5.10;91.20;;;;;;5010669;28;20134;-79
2021/03/09 08:43:01;;;;;;;36.33;14.05;;;5.20;90.20;;;;;;5009028;28;20041;-78
2021/03/09 08:45:40;;;;;;;43.38;14.85;;;5.50;90.20;;;;;;5011680;28;20030;-79
2021/03/09 08:48:06;;;;;;;29.65;13.68;;;5.50;88.90;;;;;;5010332;28;20472;-79
2021/03/09 08:50:43;;;;;;;51.67;15.55;;;5.60;88.20;;;;;;5010997;28;20519;-80
2021/03/09 08:53:31;;;;;;;34.58;15.07;;;5.70;88.10;;;;;;5011800;28;20037;-78
2021/03/09 08:56:06;;;;;;;37.08;14.57;;;6.10;86.80;;;;;;5012582;28;20092;-79
2021/03/09 08:58:39;;;;;;;33.47;14.40;;;6.00;82.40;;;;;;5013734;28;20038;-80
2021/03/09 09:01:06;;;;;;;37.40;14.95;;;6.40;82.50;;;;;;5011221;28;20042;-80
2021/03/09 09:03:39;;;;;;;35.40;13.57;;;6.50;79.60;;;;;;5014161;28;20050;-80
2021/03/09 09:06:06;;;;;;;38.38;16.23;;;6.50;79.10;;;;;;5004883;28;20073;-80
2021/03/09 09:08:32;;;;;;;33.63;15.55;;;6.60;77.10;;;;;;5015522;28;20471;-80
2021/03/09 09:10:59;;;;;;;30.50;14.13;;;7.00;75.80;;;;;;5015342;28;20117;-80
2021/03/09 09:13:28;;;;;;;38.83;16.02;;;7.50;73.50;;;;;;5018980;28;20041;-79
2021/03/09 09:15:53;;;;;;;44.35;15.25;;;7.40;72.90;;;;;;5027179;28;20030;-79
2021/03/09 09:18:21;;;;;;;34.25;14.63;;;7.60;71.20;;;;;;5010269;28;20076;-79
2021/03/09 09:20:47;;;;;;;42.83;15.75;;;7.30;70.20;;;;;;5007705;28;20102;-79
2021/03/09 09:23:16;;;;;;;37.35;14.65;;;7.00;72.50;;;;;;5008641;28;20048;-78
2021/03/09 09:25:46;;;;;;;28.90;14.50;;;7.40;71.30;;;;;;5006703;28;20042;-79
2021/03/09 09:28:31;;;;;;;39.22;15.27;;;7.50;70.50;;;;;;5003998;28;20136;-79
2021/03/09 09:31:02;;;;;;;39.25;15.50;;;7.40;70.30;;;;;;5010903;28;20034;-80
2021/03/09 09:33:32;;;;;;;41.13;15.63;;;7.60;69.70;;;;;;5012371;28;20170;-78
2021/03/09 09:35:58;;;;;;;37.00;15.98;;;7.30;69.60;;;;;;5008346;28;20045;-78
2021/03/09 09:38:24;;;;;;;41.55;15.02;;;6.90;70.10;;;;;;5012644;28;20042;-79
2021/03/09 09:40:56;;;;;;;35.67;15.73;;;6.90;71.20;;;;;;5012004;28;20066;-78
2021/03/09 09:43:27;;;;;;;28.50;14.93;;;7.10;70.90;;;;;;5011502;28;20045;-80
2021/03/09 09:46:29;;;;;;;32.03;14.68;;;7.40;70.70;;;;;;5008869;28;20057;-78
2021/03/09 09:48:56;;;;;;;39.67;15.98;;;7.80;70.10;;;;;;4992969;28;20172;-79
2021/03/09 09:51:24;;;;;;;38.45;15.80;;;7.90;68.00;;;;;;5008375;28;20107;-79
2021/03/09 09:53:51;;;;;;;30.52;16.83;;;7.80;67.50;;;;;;5015746;28;20076;-79
2021/03/09 09:56:17;;;;;;;34.28;15.48;;;7.80;67.60;;;;;;5009826;28;20120;-78
2021/03/09 09:58:57;;;;;;;33.38;15.80;;;8.20;66.80;;;;;;5024078;28;20705;-78
2021/03/09 10:01:32;;;;;;;30.80;14.63;;;8.10;66.20;;;;;;5011514;28;20033;-79
2021/03/09 10:04:06;;;;;;;32.22;15.98;;;8.60;66.00;;;;;;5016966;28;20037;-81
2021/03/09 10:06:38;;;;;;;34.33;16.20;;;8.80;64.70;;;;;;5000712;28;20080;-81
2021/03/09 10:09:16;;;;;;;40.33;16.25;;;8.80;63.50;;;;;;5019845;28;20138;-79
2021/03/09 10:11:49;;;;;;;58.28;16.70;;;8.50;64.10;;;;;;5010148;28;20127;-78
2021/03/09 10:14:19;;;;;;;35.50;15.48;;;8.50;64.10;;;;;;5008098;28;20042;-79
2021/03/09 10:16:45;;;;;;;33.85;15.68;;;8.30;63.30;;;;;;5008307;28;20069;-79
2021/03/09 10:19:15;;;;;;;32.83;14.50;;;8.30;63.10;;;;;;5008392;28;20112;-79
2021/03/09 10:21:41;;;;;;;28.85;14.75;;;8.50;61.90;;;;;;4999573;28;20070;-80
2021/03/09 10:24:07;;;;;;;42.10;15.95;;;8.20;63.00;;;;;;5006878;28;20501;-79
2021/03/09 10:26:38;;;;;;;36.75;14.63;;;8.70;63.80;;;;;;5006558;28;20070;-79
2021/03/09 10:29:12;;;;;;;40.70;15.80;;;8.70;62.20;;;;;;5008971;28;20046;-79
2021/03/09 10:31:45;;;;;;;42.42;16.85;;;8.80;62.50;;;;;;5009968;28;20063;-77
2021/03/09 10:34:12;;;;;;;39.30;16.15;;;9.00;61.60;;;;;;5007200;28;20096;-79
2021/03/09 10:36:47;;;;;;;25.23;13.15;;;9.00;62.40;;;;;;5020745;28;20602;-79
2021/03/09 10:39:13;;;;;;;30.88;15.02;;;9.00;58.50;;;;;;5023313;28;20030;-79
2021/03/09 10:41:38;;;;;;;28.63;13.98;;;9.30;59.30;;;;;;5005116;28;20622;-80
2021/03/09 10:44:04;;;;;;;36.72;15.63;;;9.40;59.60;;;;;;5005669;28;20045;-79
2021/03/09 10:46:34;;;;;;;28.75;13.13;;;9.40;58.60;;;;;;5017499;28;20515;-78
2021/03/09 10:49:00;;;;;;;35.88;14.43;;;9.60;57.10;;;;;;5011926;28;20414;-79
2021/03/09 10:51:26;;;;;;;30.48;13.88;;;9.60;56.60;;;;;;5020780;28;20129;-80
2021/03/09 10:53:51;;;;;;;28.75;13.63;;;9.30;55.80;;;;;;5004860;28;20101;-80
2021/03/09 10:56:17;;;;;;;27.02;13.60;;;9.60;56.20;;;;;;5019742;28;20046;-80
2021/03/09 10:58:42;;;;;;;32.75;13.57;;;9.80;55.80;;;;;;5015390;28;20057;-79
2021/03/09 11:01:08;;;;;;;34.42;12.30;;;9.60;54.90;;;;;;5025179;28;20133;-78
2021/03/09 11:03:34;;;;;;;38.42;13.77;;;9.50;53.40;;;;;;5020042;28;20033;-78
2021/03/09 11:05:59;;;;;;;23.45;12.73;;;9.60;53.10;;;;;;5021835;28;20061;-79
2021/03/09 11:08:25;;;;;;;35.13;12.88;;;9.40;54.00;;;;;;5022079;28;20024;-78
2021/03/09 11:10:52;;;;;;;33.33;14.55;;;9.40;54.60;;;;;;5023311;28;20121;-78
2021/03/09 11:13:19;;;;;;;28.77;11.77;;;9.60;54.10;;;;;;5014122;28;20034;-79
2021/03/09 11:18:34;;;;;;;23.50;11.15;;;9.90;53.10;;;;;;5020224;28;20836;-79
2021/03/09 11:20:59;;;;;;;26.05;11.40;;;10.10;50.60;;;;;;5019182;28;20042;-80
2021/03/09 11:23:25;;;;;;;21.15;11.57;;;9.80;50.30;;;;;;5003016;28;20059;-79
2021/03/09 11:25:51;;;;;;;25.27;12.00;;;9.60;51.40;;;;;;5010288;28;20049;-77
2021/03/09 11:28:16;;;;;;;39.72;11.98;;;9.80;51.50;;;;;;5012348;28;20120;-78
2021/03/09 11:30:42;;;;;;;33.40;12.25;;;9.60;51.00;;;;;;5022003;28;20287;-78
2021/03/09 11:33:07;;;;;;;26.05;12.15;;;9.80;50.40;;;;;;5019856;28;20037;-77
2021/03/09 11:35:33;;;;;;;22.42;10.65;;;9.60;50.10;;;;;;5017992;28;20103;-76
2021/03/09 11:37:58;;;;;;;20.17;9.18;;;9.90;49.30;;;;;;5019991;28;20037;-76
2021/03/09 11:40:24;;;;;;;20.38;8.88;;;10.00;46.20;;;;;;5019315;28;20601;-76
2021/03/09 11:42:50;;;;;;;20.83;10.25;;;10.40;43.90;;;;;;5020362;28;20042;-76
2021/03/09 11:45:16;;;;;;;22.27;10.40;;;10.60;40.80;;;;;;5008274;28;20508;-76
2021/03/09 11:47:41;;;;;;;18.90;11.32;;;10.60;39.80;;;;;;5021134;28;20568;-76
2021/03/09 11:50:08;;;;;;;27.05;10.55;;;10.40;40.50;;;;;;5002602;28;20033;-76
2021/03/09 11:52:34;;;;;;;16.95;9.90;;;10.20;41.80;;;;;;5020568;28;20465;-75
2021/03/09 11:54:59;;;;;;;16.75;9.52;;;10.50;40.40;;;;;;5019731;28;20635;-76
2021/03/09 11:57:25;;;;;;;33.60;10.77;;;10.40;39.30;;;;;;5020368;28;20058;-77
2021/03/09 11:59:51;;;;;;;24.58;11.88;;;10.60;40.10;;;;;;5028086;28;20101;-76
2021/03/09 12:02:17;;;;;;;23.67;11.90;;;10.80;41.40;;;;;;5019771;28;20581;-76
2021/03/09 12:04:42;;;;;;;31.23;12.55;;;10.60;41.60;;;;;;5016927;28;20399;-77
2021/03/09 12:07:08;;;;;;;22.42;11.02;;;10.70;42.30;;;;;;5001381;28;20060;-80
2021/03/09 12:09:33;;;;;;;25.73;11.45;;;10.70;40.80;;;;;;5020249;28;20071;-79
2021/03/09 12:11:59;;;;;;;24.05;11.65;;;10.60;41.10;;;;;;5003127;28;21096;-79
2021/03/09 12:14:24;;;;;;;17.88;9.63;;;10.50;40.70;;;;;;5019785;28;20029;-78
2021/03/09 12:16:50;;;;;;;16.23;9.85;;;10.80;40.10;;;;;;5019792;28;20064;-78
2021/03/09 12:19:16;;;;;;;31.38;10.30;;;10.60;39.40;;;;;;5003291;28;20041;-78
2021/03/09 12:21:42;;;;;;;21.05;10.30;;;10.50;40.00;;;;;;5020839;28;20041;-78
2021/03/09 12:24:08;;;;;;;26.75;11.88;;;10.50;40.40;;;;;;5020599;28;20619;-77
2021/03/09 12:26:33;;;;;;;22.95;10.85;;;10.60;40.60;;;;;;4996413;28;20037;-78
2021/03/09 12:29:00;;;;;;;17.52;9.90;;;10.50;40.80;;;;;;5021480;28;20124;-78
2021/03/09 12:31:26;;;;;;;20.65;9.50;;;10.60;40.70;;;;;;5020186;28;20044;-78
2021/03/09 12:33:51;;;;;;;23.33;10.77;;;10.60;40.30;;;;;;5019979;28;20041;-78
2021/03/09 12:36:17;;;;;;;18.80;10.07;;;10.60;40.10;;;;;;5020380;28;20033;-78
2021/03/09 12:38:43;;;;;;;30.48;9.98;;;10.70;40.00;;;;;;5021374;28;20037;-78
2021/03/09 12:41:09;;;;;;;20.52;9.95;;;10.50;39.10;;;;;;5016349;28;20043;-78
2021/03/09 12:43:34;;;;;;;20.35;10.23;;;10.30;40.00;;;;;;5021309;28;20112;-79
2021/03/09 12:46:00;;;;;;;19.52;9.82;;;10.10;39.00;;;;;;5018117;28;20398;-78